Time;durP1;ratioP1;P1;durP2;ratioP2;P2;SDS_P1;SDS_P2;PMS_P1;PMS_P2;Temp;Humidity;BMP_temperature;BMP_pressure;BME280_temperature;BME280_humidity;BME280_pressure;Samples;Min_cycle;Max_cycle;Signal;HPM_P1;HPM_P2
2021/11/24 00:00:58;;;;;;;19.87;11.27;;;6.70;99.90;;;;;;5025646;28;20836;-46
2021/11/24 00:03:25;;;;;;;17.43;11.50;;;6.70;99.90;;;;;;5017611;28;20680;-43
2021/11/24 00:05:51;;;;;;;20.23;11.73;;;6.70;99.90;;;;;;5012015;28;20212;-43
2021/11/24 00:08:19;;;;;;;15.40;10.70;;;6.70;99.90;;;;;;5023226;28;20230;-43
2021/11/24 00:10:46;;;;;;;20.17;10.73;;;6.70;99.90;;;;;;5023761;28;20176;-44
2021/11/24 00:13:13;;;;;;;19.07;11.10;;;6.70;99.90;;;;;;5019063;28;20228;-42
2021/11/24 00:15:39;;;;;;;16.67;11.23;;;6.70;99.90;;;;;;5021973;28;20192;-42
2021/11/24 00:18:06;;;;;;;20.57;11.80;;;6.70;99.90;;;;;;5022484;28;20231;-42
2021/11/24 00:20:33;;;;;;;24.90;12.47;;;6.70;99.90;;;;;;5006679;28;21200;-44
2021/11/24 00:22:59;;;;;;;17.03;11.77;;;6.70;99.90;;;;;;5024587;28;20193;-45
2021/11/24 00:25:27;;;;;;;20.67;11.90;;;6.70;99.90;;;;;;5021758;28;20196;-41
2021/11/24 00:27:54;;;;;;;17.67;10.30;;;6.70;99.90;;;;;;5021352;28;20747;-42
2021/11/24 00:30:21;;;;;;;19.20;11.83;;;6.70;99.90;;;;;;5022815;28;20192;-43
2021/11/24 00:32:47;;;;;;;18.03;11.03;;;6.70;99.90;;;;;;5023496;28;20199;-40
2021/11/24 00:35:14;;;;;;;18.50;12.50;;;6.70;99.90;;;;;;5023986;28;20206;-43
2021/11/24 00:37:41;;;;;;;17.23;10.97;;;6.70;99.90;;;;;;5007235;28;20950;-49
2021/11/24 00:40:08;;;;;;;20.53;10.97;;;6.70;99.90;;;;;;5024803;28;20198;-52
2021/11/24 00:42:36;;;;;;;18.53;11.23;;;6.70;99.90;;;;;;5019031;28;20457;-47
2021/11/24 00:45:04;;;;;;;14.23;10.87;;;6.70;99.90;;;;;;5020586;28;20207;-49
2021/11/24 00:47:30;;;;;;;17.70;10.53;;;6.70;99.90;;;;;;5020852;28;20934;-49
2021/11/24 00:49:57;;;;;;;19.33;11.80;;;6.70;99.90;;;;;;5017154;28;20238;-51
2021/11/24 00:52:24;;;;;;;19.00;10.80;;;6.70;99.90;;;;;;5010925;28;20196;-54
2021/11/24 00:54:50;;;;;;;16.00;10.63;;;6.70;99.90;;;;;;5021638;28;20215;-49
2021/11/24 00:57:17;;;;;;;21.67;11.53;;;6.60;99.90;;;;;;5020752;28;20219;-50
2021/11/24 00:59:45;;;;;;;19.97;11.93;;;6.60;99.90;;;;;;5012509;28;20207;-49
2021/11/24 01:02:12;;;;;;;20.20;11.33;;;6.60;99.90;;;;;;5023074;28;20211;-46
2021/11/24 01:04:38;;;;;;;22.87;11.37;;;6.60;99.90;;;;;;5006828;28;20279;-47
2021/11/24 01:07:05;;;;;;;22.23;11.83;;;6.60;99.90;;;;;;5013377;28;20212;-48
2021/11/24 01:09:32;;;;;;;17.47;10.63;;;6.60;99.90;;;;;;5004213;28;20200;-51
2021/11/24 01:11:58;;;;;;;19.40;11.33;;;6.60;99.90;;;;;;5015927;28;20547;-49
2021/11/24 01:14:25;;;;;;;20.23;11.23;;;6.60;99.90;;;;;;5016509;28;20228;-50
2021/11/24 01:16:53;;;;;;;16.40;10.73;;;6.60;99.90;;;;;;5022919;28;20713;-51
2021/11/24 01:19:20;;;;;;;15.77;9.97;;;6.60;99.90;;;;;;5019626;28;20204;-50
2021/11/24 01:21:47;;;;;;;18.77;10.77;;;6.60;99.90;;;;;;5016219;28;20875;-47
2021/11/24 01:24:14;;;;;;;16.07;10.87;;;6.60;99.90;;;;;;5000037;28;20207;-49
2021/11/24 01:26:41;;;;;;;18.37;10.83;;;6.60;99.90;;;;;;5021318;28;20285;-46
2021/11/24 01:29:08;;;;;;;20.47;11.07;;;6.60;99.90;;;;;;5024126;28;20199;-49
2021/11/24 01:31:34;;;;;;;16.93;11.87;;;6.60;99.90;;;;;;5015447;28;20231;-51
2021/11/24 01:34:02;;;;;;;18.43;11.60;;;6.60;99.90;;;;;;5023766;28;20212;-50
2021/11/24 01:36:29;;;;;;;20.07;11.67;;;6.60;99.90;;;;;;5017459;28;20206;-50
2021/11/24 01:38:55;;;;;;;17.77;12.37;;;6.70;99.90;;;;;;5009052;28;20688;-46
2021/11/24 01:41:22;;;;;;;22.17;12.27;;;6.70;99.90;;;;;;5015858;28;20204;-48
2021/11/24 01:43:49;;;;;;;19.40;12.40;;;6.70;99.90;;;;;;5020800;28;22533;-49
2021/11/24 01:46:15;;;;;;;19.97;12.77;;;6.70;99.90;;;;;;5018036;28;20218;-53
2021/11/24 01:48:42;;;;;;;18.90;12.57;;;6.70;99.90;;;;;;5021237;28;20976;-47
2021/11/24 01:51:10;;;;;;;16.60;11.47;;;6.70;99.90;;;;;;5019030;28;20671;-47
2021/11/24 01:53:37;;;;;;;17.93;12.33;;;6.70;99.90;;;;;;5020013;28;20227;-50
2021/11/24 01:56:03;;;;;;;20.70;12.70;;;6.70;99.90;;;;;;5005524;28;20204;-46
2021/11/24 01:58:31;;;;;;;24.23;12.60;;;6.70;99.90;;;;;;5019439;28;20212;-46
2021/11/24 02:00:57;;;;;;;21.50;13.47;;;6.80;99.90;;;;;;5023715;28;20201;-48
2021/11/24 02:03:26;;;;;;;20.77;13.07;;;6.80;99.90;;;;;;5014625;28;20207;-48
2021/11/24 02:05:52;;;;;;;19.57;12.73;;;6.80;99.90;;;;;;5018607;28;20283;-51
2021/11/24 02:08:20;;;;;;;17.73;13.80;;;6.80;99.90;;;;;;5021341;28;20219;-47
2021/11/24 02:10:47;;;;;;;22.03;14.03;;;6.90;99.90;;;;;;5008746;28;20208;-46
2021/11/24 02:13:14;;;;;;;20.83;13.43;;;6.90;99.90;;;;;;5017515;28;20203;-47
2021/11/24 02:15:41;;;;;;;18.80;13.10;;;6.90;99.90;;;;;;5020327;28;20941;-47
2021/11/24 02:18:08;;;;;;;20.77;13.40;;;6.90;99.90;;;;;;5018866;28;20227;-46
2021/11/24 02:20:41;;;;;;;23.50;12.77;;;6.90;99.90;;;;;;5019565;28;20180;-48
2021/11/24 02:23:10;;;;;;;21.43;12.93;;;6.90;99.90;;;;;;5023253;28;20254;-47
2021/11/24 02:25:37;;;;;;;18.83;12.73;;;6.90;99.90;;;;;;5006620;28;20211;-49
2021/11/24 02:28:04;;;;;;;19.67;12.57;;;6.90;99.90;;;;;;5023115;28;20212;-48
2021/11/24 02:30:31;;;;;;;19.93;13.43;;;6.90;99.90;;;;;;5019518;28;20195;-50
2021/11/24 02:32:58;;;;;;;19.00;12.70;;;7.00;99.90;;;;;;5018730;28;20196;-47
2021/11/24 02:35:25;;;;;;;25.17;13.60;;;7.00;99.90;;;;;;5024064;28;20215;-48
2021/11/24 02:37:53;;;;;;;17.33;13.10;;;7.00;99.90;;;;;;5026679;28;20211;-51
2021/11/24 02:40:20;;;;;;;21.20;12.93;;;7.00;99.90;;;;;;5014571;28;20749;-50
2021/11/24 02:42:46;;;;;;;18.33;11.90;;;7.00;99.90;;;;;;5012648;28;20201;-49
2021/11/24 02:45:13;;;;;;;19.30;12.17;;;7.00;99.90;;;;;;5015050;28;20219;-48
2021/11/24 02:47:40;;;;;;;17.23;12.40;;;7.00;99.90;;;;;;5017530;28;20224;-47
2021/11/24 02:50:07;;;;;;;19.13;11.80;;;7.00;99.90;;;;;;5019842;28;20207;-50
2021/11/24 02:52:34;;;;;;;28.67;13.47;;;7.00;99.90;;;;;;5021279;28;20215;-48
2021/11/24 02:55:06;;;;;;;22.53;13.87;;;7.00;99.90;;;;;;5025100;28;20216;-51
2021/11/24 02:57:35;;;;;;;21.17;12.63;;;7.00;99.90;;;;;;5012415;28;20227;-50
2021/11/24 03:00:03;;;;;;;21.20;14.03;;;7.10;99.90;;;;;;5020093;28;20204;-52
2021/11/24 03:02:30;;;;;;;23.73;13.80;;;7.10;99.90;;;;;;5024961;28;20964;-52
2021/11/24 03:04:56;;;;;;;23.27;13.50;;;7.10;99.90;;;;;;5021368;28;20274;-49
2021/11/24 03:07:23;;;;;;;22.60;13.80;;;7.10;99.90;;;;;;5023487;28;20224;-47
2021/11/24 03:09:52;;;;;;;21.20;13.93;;;7.20;99.90;;;;;;5026412;28;20207;-47
2021/11/24 03:12:20;;;;;;;24.07;13.80;;;7.20;99.90;;;;;;5009335;28;20208;-51
2021/11/24 03:14:47;;;;;;;22.27;12.70;;;7.20;99.90;;;;;;5025853;28;20223;-49
2021/11/24 03:17:14;;;;;;;20.90;12.53;;;7.20;99.90;;;;;;5016718;28;20332;-47
2021/11/24 03:19:40;;;;;;;16.20;11.67;;;7.20;99.90;;;;;;5022093;28;20856;-48
2021/11/24 03:22:07;;;;;;;17.57;12.03;;;7.20;99.90;;;;;;5023408;28;20204;-51
2021/11/24 03:24:34;;;;;;;23.43;12.50;;;7.20;99.90;;;;;;5025424;28;20188;-46
2021/11/24 03:27:00;;;;;;;20.60;13.37;;;7.20;99.90;;;;;;5024252;28;20227;-49
2021/11/24 03:29:28;;;;;;;26.10;13.13;;;7.20;99.90;;;;;;5011308;28;20880;-49
2021/11/24 03:31:55;;;;;;;22.27;12.17;;;7.20;99.90;;;;;;5025206;28;20203;-47
2021/11/24 03:34:21;;;;;;;23.97;12.93;;;7.30;99.90;;;;;;5022744;28;20215;-49
2021/11/24 03:36:48;;;;;;;19.33;12.33;;;7.30;99.90;;;;;;5015497;28;20222;-50
2021/11/24 03:39:15;;;;;;;22.30;12.80;;;7.20;99.90;;;;;;5021837;28;20246;-50
2021/11/24 03:41:41;;;;;;;18.50;12.27;;;7.30;99.90;;;;;;5025567;28;20204;-48
2021/11/24 03:44:09;;;;;;;17.20;11.03;;;7.20;99.90;;;;;;5009168;28;20211;-51
2021/11/24 03:46:36;;;;;;;17.87;10.23;;;7.30;99.90;;;;;;5020706;28;20204;-48
2021/11/24 03:49:03;;;;;;;14.50;10.00;;;7.30;99.90;;;;;;5023896;28;20200;-48
2021/11/24 03:51:30;;;;;;;12.97;8.60;;;7.30;99.90;;;;;;5019621;28;20239;-48
2021/11/24 03:53:56;;;;;;;15.33;9.50;;;7.30;99.90;;;;;;5024818;28;20200;-51
2021/11/24 03:56:23;;;;;;;15.00;9.90;;;7.30;99.90;;;;;;5022994;28;20191;-48
2021/11/24 03:58:50;;;;;;;15.97;8.90;;;7.30;99.90;;;;;;5012744;28;20235;-47
2021/11/24 04:01:16;;;;;;;14.03;8.60;;;7.30;99.90;;;;;;5020852;28;20184;-48
2021/11/24 04:03:44;;;;;;;12.53;8.30;;;7.30;99.90;;;;;;5015329;28;20201;-51
2021/11/24 04:06:11;;;;;;;13.57;8.70;;;7.30;99.90;;;;;;5015585;28;20657;-51
2021/11/24 04:08:37;;;;;;;12.20;8.33;;;7.30;99.90;;;;;;5024661;28;20228;-48
2021/11/24 04:11:04;;;;;;;12.67;8.07;;;7.30;99.90;;;;;;5011614;28;20594;-50
2021/11/24 04:13:31;;;;;;;12.73;7.90;;;7.30;99.90;;;;;;5023727;28;20203;-49
2021/11/24 04:15:57;;;;;;;12.67;8.93;;;7.30;99.90;;;;;;5010584;28;20692;-47
2021/11/24 04:18:24;;;;;;;12.20;8.47;;;7.30;99.90;;;;;;5020690;28;20216;-52
2021/11/24 04:20:55;;;;;;;11.53;8.10;;;7.30;99.90;;;;;;5025341;28;20679;-46
2021/11/24 04:23:22;;;;;;;10.47;6.93;;;7.30;99.90;;;;;;5017506;28;20198;-48
2021/11/24 04:25:48;;;;;;;12.43;8.20;;;7.30;99.90;;;;;;5025250;28;20207;-49
2021/11/24 04:28:15;;;;;;;11.73;8.07;;;7.40;99.90;;;;;;5020475;28;20208;-47
2021/11/24 04:30:42;;;;;;;11.10;8.43;;;7.40;99.90;;;;;;5010711;28;20204;-48
2021/11/24 04:33:08;;;;;;;13.20;8.33;;;7.40;99.90;;;;;;5021398;28;20203;-49
2021/11/24 04:35:35;;;;;;;12.00;7.43;;;7.40;99.90;;;;;;5024338;28;20554;-50
2021/11/24 04:38:03;;;;;;;14.37;9.53;;;7.40;99.90;;;;;;5017844;28;20234;-51
2021/11/24 04:40:29;;;;;;;12.80;8.77;;;7.40;99.90;;;;;;5023087;28;20207;-48
2021/11/24 04:42:56;;;;;;;12.47;9.67;;;7.40;99.90;;;;;;5023768;28;20203;-52
2021/11/24 04:45:23;;;;;;;13.17;9.30;;;7.40;99.90;;;;;;5021858;28;20268;-49
2021/11/24 04:47:49;;;;;;;15.57;8.73;;;7.50;99.90;;;;;;5008488;28;20719;-51
2021/11/24 04:50:16;;;;;;;13.97;8.90;;;7.40;99.90;;;;;;5020634;28;20196;-47
2021/11/24 04:52:43;;;;;;;11.00;8.23;;;7.50;99.90;;;;;;5024393;28;20200;-52
2021/11/24 04:55:12;;;;;;;12.70;8.07;;;7.50;99.90;;;;;;5014722;28;20219;-52
2021/11/24 04:57:39;;;;;;;11.23;8.30;;;7.50;99.90;;;;;;5011528;28;20270;-47
2021/11/24 05:00:11;;;;;;;13.80;9.53;;;7.40;99.90;;;;;;5021857;28;20199;-52
2021/11/24 05:02:37;;;;;;;15.00;9.80;;;7.40;99.90;;;;;;5010903;28;20215;-47
2021/11/24 05:05:05;;;;;;;18.03;10.63;;;7.40;99.90;;;;;;5021965;28;20541;-51
2021/11/24 05:07:31;;;;;;;17.53;10.70;;;7.40;99.90;;;;;;5022866;28;20216;-48
2021/11/24 05:09:58;;;;;;;14.83;9.97;;;7.40;99.90;;;;;;5018289;28;20286;-52
2021/11/24 05:12:26;;;;;;;13.80;10.20;;;7.40;99.90;;;;;;5021451;28;20926;-47
2021/11/24 05:14:53;;;;;;;20.50;11.77;;;7.40;99.90;;;;;;5018991;28;20222;-52
2021/11/24 05:17:23;;;;;;;17.97;10.47;;;7.50;99.90;;;;;;5012304;28;20217;-51
2021/11/24 05:19:50;;;;;;;15.73;10.27;;;7.50;99.90;;;;;;5010820;28;20235;-50
2021/11/24 05:22:18;;;;;;;17.50;10.63;;;7.50;99.90;;;;;;5018729;28;20188;-48
2021/11/24 05:24:45;;;;;;;14.03;10.10;;;7.50;99.90;;;;;;5009247;28;20275;-53
2021/11/24 05:27:12;;;;;;;13.90;9.63;;;7.50;99.90;;;;;;5019748;28;20215;-50
2021/11/24 05:29:40;;;;;;;12.57;9.33;;;7.50;99.90;;;;;;5023694;28;20215;-50
2021/11/24 05:32:07;;;;;;;14.60;9.37;;;7.50;99.90;;;;;;5019888;28;20251;-54
2021/11/24 05:34:34;;;;;;;14.23;8.97;;;7.50;99.90;;;;;;5010628;28;20210;-52
2021/11/24 05:37:02;;;;;;;13.07;8.73;;;7.50;99.90;;;;;;5020531;28;20708;-50
2021/11/24 05:39:29;;;;;;;14.17;9.03;;;7.50;99.90;;;;;;5017986;28;20284;-47
2021/11/24 05:41:56;;;;;;;12.77;8.60;;;7.50;99.90;;;;;;5017185;28;20207;-51
2021/11/24 05:44:24;;;;;;;12.50;8.63;;;7.50;99.90;;;;;;5018846;28;22838;-48
2021/11/24 05:46:57;;;;;;;12.20;8.27;;;7.50;99.90;;;;;;5022357;28;20204;-54
2021/11/24 05:49:24;;;;;;;15.30;8.73;;;7.50;99.90;;;;;;5007000;28;20324;-51
2021/11/24 05:51:51;;;;;;;14.73;8.80;;;7.50;99.90;;;;;;5022741;28;20199;-53
2021/11/24 05:54:18;;;;;;;11.60;8.20;;;7.50;99.90;;;;;;5012223;28;20200;-51
2021/11/24 05:56:45;;;;;;;12.37;8.43;;;7.50;99.90;;;;;;5013618;28;20677;-52
2021/11/24 05:59:14;;;;;;;15.47;9.00;;;7.50;99.90;;;;;;5015134;28;20241;-53
2021/11/24 06:01:41;;;;;;;12.17;8.33;;;7.50;99.90;;;;;;5015910;28;20584;-50
2021/11/24 06:04:09;;;;;;;13.93;9.47;;;7.40;99.90;;;;;;5018750;28;20262;-49
2021/11/24 06:06:36;;;;;;;13.17;9.03;;;7.40;99.90;;;;;;5002971;28;20196;-51
2021/11/24 06:09:04;;;;;;;16.17;9.40;;;7.40;99.90;;;;;;5018193;28;20223;-47
2021/11/24 06:11:31;;;;;;;14.33;9.07;;;7.40;99.90;;;;;;5022219;28;20207;-49
2021/11/24 06:13:58;;;;;;;13.90;9.93;;;7.40;99.90;;;;;;5015673;28;20668;-50
2021/11/24 06:16:25;;;;;;;16.57;10.67;;;7.40;99.90;;;;;;5020804;28;20216;-48
2021/11/24 06:18:51;;;;;;;17.43;11.37;;;7.40;99.90;;;;;;5005244;28;20216;-53
2021/11/24 06:21:22;;;;;;;17.33;11.43;;;7.40;99.90;;;;;;5004163;28;20281;-48
2021/11/24 06:23:48;;;;;;;15.90;10.83;;;7.40;99.90;;;;;;5012594;28;20935;-48
2021/11/24 06:26:16;;;;;;;16.97;10.70;;;7.40;99.90;;;;;;5018410;28;20279;-48
2021/11/24 06:28:44;;;;;;;14.20;10.63;;;7.40;99.90;;;;;;5014717;28;20223;-46
2021/11/24 06:31:11;;;;;;;18.90;10.80;;;7.40;99.90;;;;;;5023121;28;20615;-49
2021/11/24 06:33:38;;;;;;;15.53;10.10;;;7.40;99.90;;;;;;5018750;28;20192;-47
2021/11/24 06:36:05;;;;;;;15.67;11.00;;;7.40;99.90;;;;;;5009043;28;20298;-47
2021/11/24 06:38:34;;;;;;;16.07;10.53;;;7.40;99.90;;;;;;5014256;28;20291;-51
2021/11/24 06:41:01;;;;;;;14.67;10.57;;;7.40;99.90;;;;;;5016300;28;20212;-48
2021/11/24 06:43:28;;;;;;;21.57;11.13;;;7.40;99.90;;;;;;5014346;28;20204;-53
2021/11/24 06:45:55;;;;;;;14.87;11.00;;;7.40;99.90;;;;;;5018271;28;20196;-48
2021/11/24 06:48:22;;;;;;;16.27;11.37;;;7.40;99.90;;;;;;5025516;28;20778;-49
2021/11/24 06:50:48;;;;;;;18.20;12.00;;;7.40;99.90;;;;;;5006272;28;20200;-50
2021/11/24 06:53:15;;;;;;;17.07;11.87;;;7.40;99.90;;;;;;5005231;28;20192;-50
2021/11/24 06:55:43;;;;;;;15.30;10.67;;;7.40;99.90;;;;;;5021062;28;20219;-49
2021/11/24 06:58:11;;;;;;;13.37;9.97;;;7.40;99.90;;;;;;5007877;28;20224;-48
2021/11/24 07:00:38;;;;;;;14.37;9.97;;;7.40;99.90;;;;;;5018167;28;20243;-51
2021/11/24 07:03:04;;;;;;;12.33;9.57;;;7.40;99.90;;;;;;5016117;28;20195;-53
2021/11/24 07:05:31;;;;;;;14.27;9.93;;;7.40;99.90;;;;;;5006373;28;20577;-52
2021/11/24 07:07:58;;;;;;;13.07;9.43;;;7.40;99.90;;;;;;5000160;28;21129;-46
2021/11/24 07:10:25;;;;;;;13.20;9.70;;;7.40;99.90;;;;;;5016094;28;20616;-46
2021/11/24 07:12:53;;;;;;;13.73;9.87;;;7.40;99.90;;;;;;5013074;28;20211;-47
2021/11/24 07:15:20;;;;;;;12.80;10.33;;;7.40;99.90;;;;;;5016283;28;22018;-45
2021/11/24 07:17:46;;;;;;;14.03;9.43;;;7.40;99.90;;;;;;5019630;28;20222;-46
2021/11/24 07:20:13;;;;;;;14.50;9.10;;;7.40;99.90;;;;;;5012406;28;20574;-45
2021/11/24 07:22:40;;;;;;;13.83;8.93;;;7.40;99.90;;;;;;5011772;28;20619;-44
2021/11/24 07:25:08;;;;;;;15.17;9.57;;;7.40;99.90;;;;;;5014850;28;20321;-46
2021/11/24 07:27:34;;;;;;;15.43;9.70;;;7.40;99.90;;;;;;5024635;28;20228;-44
2021/11/24 07:30:03;;;;;;;11.93;8.87;;;7.40;99.90;;;;;;5015687;28;20262;-46
2021/11/24 07:32:30;;;;;;;13.93;9.53;;;7.40;99.90;;;;;;5029620;28;20204;-47
2021/11/24 07:34:56;;;;;;;14.17;9.80;;;7.40;99.90;;;;;;5039662;28;20198;-48
2021/11/24 07:37:23;;;;;;;14.73;9.83;;;7.30;99.90;;;;;;5023589;28;20716;-46
2021/11/24 07:39:50;;;;;;;15.53;9.93;;;7.30;99.90;;;;;;4998457;28;20212;-46
2021/11/24 07:42:16;;;;;;;15.70;10.47;;;7.40;99.90;;;;;;5020510;28;20204;-47
2021/11/24 07:44:43;;;;;;;15.07;10.40;;;7.30;99.90;;;;;;5020689;28;20212;-48
2021/11/24 07:47:12;;;;;;;13.90;10.23;;;7.40;99.90;;;;;;5021297;28;20220;-45
2021/11/24 07:49:38;;;;;;;17.90;11.20;;;7.30;99.90;;;;;;5025577;28;20279;-45
2021/11/24 07:52:06;;;;;;;13.37;9.93;;;7.30;99.90;;;;;;5031411;28;20211;-46
2021/11/24 07:54:33;;;;;;;14.17;10.13;;;7.30;99.90;;;;;;5009778;28;20208;-47
2021/11/24 07:56:59;;;;;;;15.83;9.97;;;7.30;99.90;;;;;;5017893;28;20215;-44
2021/11/24 07:59:26;;;;;;;16.70;10.17;;;7.30;99.90;;;;;;5021714;28;20200;-44
2021/11/24 08:01:53;;;;;;;18.50;10.87;;;7.40;99.90;;;;;;5019513;28;20195;-48
2021/11/24 08:04:21;;;;;;;14.60;10.57;;;7.40;99.90;;;;;;5026153;28;20208;-45
2021/11/24 08:06:48;;;;;;;16.23;10.70;;;7.40;99.90;;;;;;5026336;28;20202;-49
2021/11/24 08:09:14;;;;;;;15.73;10.87;;;7.40;99.90;;;;;;5026669;28;20218;-45
2021/11/24 08:11:42;;;;;;;16.13;11.47;;;7.40;99.90;;;;;;5007494;28;20231;-48
2021/11/24 08:14:09;;;;;;;17.37;11.27;;;7.40;99.90;;;;;;5028847;28;20208;-45
2021/11/24 08:16:35;;;;;;;17.53;11.13;;;7.40;99.90;;;;;;5025242;28;20223;-46
2021/11/24 08:19:02;;;;;;;16.90;11.67;;;7.40;99.90;;;;;;5019314;28;20294;-45
2021/11/24 08:21:30;;;;;;;17.83;11.00;;;7.40;99.90;;;;;;5029283;28;20195;-45
2021/11/24 08:23:56;;;;;;;17.87;11.47;;;7.40;99.90;;;;;;5019888;28;20215;-45
2021/11/24 08:26:23;;;;;;;22.40;12.37;;;7.40;99.90;;;;;;5012771;28;20207;-48
2021/11/24 08:28:50;;;;;;;15.10;10.47;;;7.50;99.90;;;;;;5011415;28;20358;-46
2021/11/24 08:31:16;;;;;;;25.60;12.40;;;7.50;99.90;;;;;;5025618;28;20204;-45
2021/11/24 08:33:43;;;;;;;21.53;11.37;;;7.50;99.90;;;;;;5014611;28;20201;-50
2021/11/24 08:36:11;;;;;;;15.37;10.40;;;7.50;99.90;;;;;;5018472;28;20216;-44
2021/11/24 08:38:40;;;;;;;11.63;8.23;;;7.50;99.90;;;;;;5016561;28;20303;-46
2021/11/24 08:41:08;;;;;;;13.83;9.50;;;7.50;99.90;;;;;;5008350;28;20192;-45
2021/11/24 08:43:34;;;;;;;15.40;10.33;;;7.50;99.90;;;;;;5022819;28;20211;-44
2021/11/24 08:46:01;;;;;;;12.20;9.13;;;7.50;99.90;;;;;;5020413;28;20941;-44
2021/11/24 08:48:27;;;;;;;17.00;11.43;;;7.50;99.90;;;;;;5020509;28;20224;-44
2021/11/24 08:50:54;;;;;;;14.80;9.77;;;7.40;99.90;;;;;;5026186;28;20921;-45
2021/11/24 08:53:22;;;;;;;15.50;10.47;;;7.50;99.90;;;;;;5030519;28;20841;-45
2021/11/24 08:55:51;;;;;;;16.87;10.73;;;7.40;99.90;;;;;;5006267;28;20216;-44
2021/11/24 08:58:18;;;;;;;15.87;11.20;;;7.50;99.90;;;;;;5013493;28;20255;-46
2021/11/24 09:00:45;;;;;;;15.17;9.97;;;7.50;99.90;;;;;;5019335;28;20217;-47
2021/11/24 09:03:12;;;;;;;11.60;9.27;;;7.50;99.90;;;;;;5023048;28;20208;-45
2021/11/24 09:05:39;;;;;;;16.70;9.83;;;7.50;99.90;;;;;;5018897;28;20208;-45
2021/11/24 09:08:06;;;;;;;20.77;11.70;;;7.50;99.90;;;;;;5037067;28;20223;-45
2021/11/24 09:10:34;;;;;;;21.53;9.60;;;7.40;99.90;;;;;;5023060;28;20231;-47
2021/11/24 09:13:02;;;;;;;15.53;9.33;;;7.50;99.90;;;;;;5004404;28;20211;-46
2021/11/24 09:15:29;;;;;;;12.83;9.37;;;7.50;99.90;;;;;;5023929;28;20199;-44
2021/11/24 09:17:55;;;;;;;13.93;9.60;;;7.50;99.90;;;;;;5011488;28;20212;-46
2021/11/24 09:20:22;;;;;;;16.07;9.47;;;7.50;99.90;;;;;;5022196;28;20707;-44
2021/11/24 09:22:49;;;;;;;21.00;9.67;;;7.50;99.90;;;;;;5015113;28;20301;-45
2021/11/24 09:25:19;;;;;;;15.33;10.63;;;7.50;99.90;;;;;;5019133;28;20227;-44
2021/11/24 09:27:48;;;;;;;16.20;9.47;;;7.50;99.90;;;;;;4999981;28;20655;-45
2021/11/24 09:30:18;;;;;;;17.10;9.90;;;7.60;99.90;;;;;;5016602;28;20756;-44
2021/11/24 09:32:45;;;;;;;16.07;9.73;;;7.60;99.90;;;;;;5011411;28;20905;-47
2021/11/24 09:35:12;;;;;;;25.03;11.47;;;7.60;99.90;;;;;;5016549;28;20226;-45
2021/11/24 09:37:39;;;;;;;16.17;10.27;;;7.70;99.90;;;;;;5012074;28;21663;-45
2021/11/24 09:40:07;;;;;;;15.47;10.13;;;7.70;99.90;;;;;;5021735;28;20200;-47
2021/11/24 09:42:37;;;;;;;16.67;9.50;;;7.70;99.90;;;;;;5017828;28;20200;-47
2021/11/24 09:45:06;;;;;;;23.37;10.97;;;7.70;99.90;;;;;;5003605;28;20211;-44
2021/11/24 09:47:35;;;;;;;14.77;8.70;;;7.70;99.90;;;;;;5010652;28;20216;-46
2021/11/24 09:50:05;;;;;;;30.53;12.57;;;7.70;99.90;;;;;;5030521;28;20274;-45
2021/11/24 09:52:34;;;;;;;15.80;10.03;;;7.70;99.90;;;;;;5015851;28;20200;-45
2021/11/24 09:55:01;;;;;;;13.03;9.87;;;7.70;99.90;;;;;;5018915;28;20669;-44
2021/11/24 09:57:28;;;;;;;14.20;8.93;;;7.70;99.90;;;;;;5026628;28;20629;-45
2021/11/24 09:59:56;;;;;;;16.53;10.47;;;7.70;99.90;;;;;;5005189;28;20216;-44
2021/11/24 10:02:23;;;;;;;12.40;8.77;;;7.70;99.90;;;;;;5027255;28;20676;-45
2021/11/24 10:04:51;;;;;;;14.67;9.83;;;7.80;99.90;;;;;;5021502;28;20205;-44
2021/11/24 10:07:20;;;;;;;14.93;10.77;;;7.70;99.90;;;;;;5020193;28;20238;-46
2021/11/24 10:09:47;;;;;;;18.77;11.90;;;7.70;99.90;;;;;;5013207;28;20214;-48
2021/11/24 10:12:14;;;;;;;22.73;12.17;;;7.80;99.90;;;;;;5016380;28;20204;-44
2021/11/24 10:14:42;;;;;;;22.53;11.60;;;7.90;99.90;;;;;;5007513;28;20203;-45
2021/11/24 10:17:12;;;;;;;15.67;10.63;;;7.90;99.90;;;;;;5018872;28;20700;-45
2021/11/24 10:19:39;;;;;;;24.53;12.63;;;7.90;99.90;;;;;;5015118;28;20208;-45
2021/11/24 10:22:10;;;;;;;27.67;12.17;;;8.00;99.90;;;;;;5018988;28;20208;-47
2021/11/24 10:24:39;;;;;;;35.00;14.40;;;8.00;99.90;;;;;;5014984;28;20266;-47
2021/11/24 10:27:08;;;;;;;15.33;11.07;;;8.10;99.90;;;;;;5020344;28;20227;-45
2021/11/24 10:29:35;;;;;;;16.97;10.80;;;8.10;99.90;;;;;;5010100;28;20203;-45
2021/11/24 10:32:04;;;;;;;11.87;9.17;;;8.10;99.90;;;;;;5016665;28;20896;-45
2021/11/24 10:34:34;;;;;;;13.07;9.30;;;8.20;99.90;;;;;;5019214;28;20210;-48
2021/11/24 10:37:05;;;;;;;22.67;12.57;;;8.10;99.90;;;;;;5023444;28;20252;-45
2021/11/24 10:39:37;;;;;;;14.90;10.23;;;8.10;99.90;;;;;;5009260;28;20683;-45
2021/11/24 10:42:11;;;;;;;14.40;10.33;;;8.20;99.90;;;;;;5023181;28;20549;-45
2021/11/24 10:44:39;;;;;;;17.30;10.23;;;8.20;99.90;;;;;;5007754;28;20314;-47
2021/11/24 10:47:08;;;;;;;17.60;10.77;;;8.20;99.90;;;;;;5002241;28;20222;-46
2021/11/24 10:49:42;;;;;;;15.17;10.30;;;8.30;99.90;;;;;;5007784;28;20208;-50
2021/11/24 10:52:18;;;;;;;18.73;11.00;;;8.30;99.90;;;;;;5021383;28;20209;-49
2021/11/24 10:54:57;;;;;;;15.33;9.67;;;8.40;99.90;;;;;;5016648;28;20211;-47
2021/11/24 10:57:24;;;;;;;18.87;10.37;;;8.30;99.90;;;;;;5010205;28;20317;-46
2021/11/24 10:59:51;;;;;;;18.40;10.97;;;8.40;99.90;;;;;;5012669;28;20204;-47
2021/11/24 11:02:27;;;;;;;15.73;9.10;;;8.50;99.90;;;;;;5008869;28;20222;-44
2021/11/24 11:04:58;;;;;;;16.37;8.87;;;8.50;99.90;;;;;;5017343;28;20207;-44
2021/11/24 11:07:25;;;;;;;22.33;10.87;;;8.50;99.90;;;;;;5015142;28;20219;-48
2021/11/24 11:10:08;;;;;;;19.20;9.03;;;8.50;99.90;;;;;;5019449;28;20688;-44
2021/11/24 11:12:36;;;;;;;11.43;6.87;;;8.50;99.90;;;;;;5021333;28;20465;-44
2021/11/24 11:15:20;;;;;;;16.57;9.47;;;8.50;99.90;;;;;;5024167;28;20219;-46
2021/11/24 11:18:03;;;;;;;14.40;8.20;;;8.50;99.90;;;;;;5010863;28;20227;-44
2021/11/24 11:20:33;;;;;;;12.03;7.80;;;8.60;99.90;;;;;;5010189;28;20219;-45
2021/11/24 11:23:11;;;;;;;13.83;7.60;;;8.50;99.90;;;;;;5017855;28;20246;-46
2021/11/24 11:25:41;;;;;;;15.30;7.70;;;8.50;99.90;;;;;;5016897;28;20939;-45
2021/11/24 11:28:08;;;;;;;11.33;6.60;;;8.50;99.90;;;;;;5023172;28;20677;-45
2021/11/24 11:30:36;;;;;;;11.83;7.97;;;8.50;99.90;;;;;;5023894;28;20242;-44
2021/11/24 11:33:04;;;;;;;10.37;7.23;;;8.50;99.90;;;;;;5013853;28;20212;-45
2021/11/24 11:35:31;;;;;;;10.87;6.70;;;8.60;99.90;;;;;;5009671;28;20199;-46
2021/11/24 11:37:59;;;;;;;16.07;8.20;;;8.60;99.90;;;;;;5019174;28;20219;-46
2021/11/24 11:40:27;;;;;;;14.30;7.70;;;8.70;99.90;;;;;;5019373;28;20211;-45
2021/11/24 11:42:58;;;;;;;15.80;7.70;;;8.70;99.90;;;;;;5022164;28;20211;-44
2021/11/24 11:45:29;;;;;;;12.00;5.57;;;8.70;99.90;;;;;;5017618;28;20204;-45
2021/11/24 11:47:58;;;;;;;6.60;4.53;;;8.80;99.90;;;;;;5005339;28;20212;-45
2021/11/24 11:50:57;;;;;;;7.50;5.40;;;8.70;99.90;;;;;;5017692;28;20571;-45
2021/11/24 11:53:28;;;;;;;9.77;5.80;;;8.80;99.90;;;;;;5024461;28;20196;-44
2021/11/24 11:56:17;;;;;;;8.63;5.00;;;8.80;99.90;;;;;;5015580;28;20285;-45
2021/11/24 11:59:03;;;;;;;5.93;4.13;;;8.80;99.90;;;;;;5024733;28;20312;-45
2021/11/24 12:01:33;;;;;;;7.27;4.30;;;8.80;99.90;;;;;;5005386;28;20208;-47
2021/11/24 12:04:09;;;;;;;3.87;3.47;;;8.80;99.90;;;;;;5010129;28;20208;-45
2021/11/24 12:06:42;;;;;;;4.70;3.70;;;8.80;99.90;;;;;;5022334;28;20219;-46
2021/11/24 12:09:21;;;;;;;4.83;3.70;;;8.80;99.90;;;;;;5017613;28;20282;-45
2021/11/24 12:12:12;;;;;;;10.00;5.23;;;8.80;99.90;;;;;;5015738;28;20661;-46
2021/11/24 12:15:01;;;;;;;7.53;3.90;;;8.70;99.90;;;;;;5015321;28;20210;-46
2021/11/24 12:17:35;;;;;;;6.73;3.40;;;8.70;99.90;;;;;;5019882;28;20222;-45
2021/11/24 12:20:28;;;;;;;6.83;4.37;;;8.70;99.90;;;;;;5005821;28;20211;-48
2021/11/24 12:22:58;;;;;;;4.87;3.60;;;8.70;99.90;;;;;;5018175;28;20200;-44
2021/11/24 12:25:42;;;;;;;4.00;3.40;;;8.70;99.90;;;;;;5018361;28;20318;-45
2021/11/24 12:28:12;;;;;;;8.30;3.67;;;8.70;99.90;;;;;;5014527;28;20212;-43
2021/11/24 12:31:08;;;;;;;7.10;4.50;;;8.70;99.90;;;;;;5039115;28;20195;-46
2021/11/24 12:33:52;;;;;;;4.03;3.50;;;8.70;99.90;;;;;;5012008;28;20214;-45
2021/11/24 12:36:24;;;;;;;18.73;6.73;;;8.70;99.90;;;;;;5009038;28;20607;-44
2021/11/24 12:38:52;;;;;;;6.00;4.40;;;8.70;99.90;;;;;;5020279;28;20239;-46
2021/11/24 12:41:23;;;;;;;9.47;5.37;;;8.70;99.90;;;;;;5014479;28;20212;-44
2021/11/24 12:43:52;;;;;;;6.67;4.77;;;8.70;99.90;;;;;;5022197;28;20205;-48
2021/11/24 12:46:22;;;;;;;6.07;4.20;;;8.70;99.90;;;;;;5023150;28;20199;-45
2021/11/24 12:48:52;;;;;;;6.93;4.00;;;8.70;99.90;;;;;;5019842;28;20208;-46